Airfield :
LOGIN :

Register | Disclaimer

   EN    FR    IT 

 










Legend :    VFR   Marginal VFR   IFR   Intensive IFR   Very Intensive IFR
Visi :
Ceiling :
>= 8 km
>= 3000ft
5 to 8 km
1000 to 3000 ft
1500m to 5 km
500 to 1000 ft
800 to 1500m
200 to 500 ft
< 800m
< 200 ft
Symbols :   Thunderstorms  Fog  Heavy snow  Heavy precipitations  Wind > 20 kt
SIGMETs :     Misc.  Thunderstorms  Icing  Turbulence  Mountain Waves  Volcanic Ashes






- Airport Elevation : 978 ft
- IATA code : LNZ


LOWL - Linz

CURRENT METAR :
  • 290820Z AUTO 09005KT 8000 FEW008 BKN070 03/01 Q1018 NOSIG

EXPIRED METARs :
  • 290750Z AUTO 10005KT 070V130 8000 FEW008 BKN060 02/01 Q1018 NOSIG
  • 290720Z AUTO 09005KT 9000 FEW028 BKN060 02/01 Q1017 NOSIG
  • 290650Z AUTO 10005KT 9000 -DZ FEW050 BKN060 02/01 Q1017 NOSIG
  • 290620Z AUTO 09006KT 7000 -RA FEW042 BKN050 02/01 Q1017 NOSIG
  • 290550Z AUTO 09006KT 8000 FEW040 BKN060 02/01 Q1017 NOSIG

TAF TAF LOWL
Valid from the 29 at 06:00 until the 30 at 06:00 UTC


290515Z 2906/3006 09006KT 9999 FEW025 BKN040 TX04/2912Z TN01/3005Z
TEMPO 2906/2910 -RADZ
BECMG 3000/3002 4000 SCT005 BKN009
PROB30
TEMPO 3004/3006 VRB01KT 0800 BCFG VV002



MET'MAP, your aeronautical weather chart ! - Copyright ORBIFLY December 2007 - Disclaimer

ORBIFLY MET'MAP TEAM :

Programming & Development : Alexandra Zaïnal
Original concept : Baudouin d'Aumeries
Technical & hardware support : Manuel Goepfert
Assistance : Marc-Olivier Méhu




SOURCES & CREDITS :

   NOAA